Time;durP1;ratioP1;P1;durP2;ratioP2;P2;SDS_P1;SDS_P2;PMS_P1;PMS_P2;Temp;Humidity;BMP_temperature;BMP_pressure;BME280_temperature;BME280_humidity;BME280_pressure;Samples;Min_cycle;Max_cycle;Signal;HPM_P1;HPM_P2
2023/07/11 00:00:38;;;;;;;2.30;0.88;;;;;;;;;;4943766;28;20572;-72
2023/07/11 00:03:03;;;;;;;1.63;1.10;;;;;;;;;;4944880;29;20196;-72
2023/07/11 00:05:28;;;;;;;1.65;0.98;;;;;;;;;;4944698;28;20185;-72
2023/07/11 00:07:53;;;;;;;1.75;1.00;;;;;;;;;;4945133;28;20201;-73
2023/07/11 00:10:19;;;;;;;2.85;1.02;;;;;;;;;;4942863;29;20307;-72
2023/07/11 00:12:44;;;;;;;3.30;1.00;;;;;;;;;;4942600;29;20308;-73
2023/07/11 00:15:11;;;;;;;4.10;1.05;;;;;;;;;;4942846;29;20173;-72
2023/07/11 00:17:38;;;;;;;1.50;0.80;;;;;;;;;;4956317;23;20245;-67
2023/07/11 00:20:08;;;;;;;2.92;0.93;;;;;;;;;;4962364;28;20184;-68
2023/07/11 00:22:33;;;;;;;1.60;0.70;;;;;;;;;;4960486;28;20199;-68
2023/07/11 00:24:58;;;;;;;4.10;1.50;;;;;;;;;;4962346;28;20188;-68
2023/07/11 00:27:24;;;;;;;2.38;0.80;;;;;;;;;;4960376;28;21094;-68
2023/07/11 00:29:50;;;;;;;4.38;1.02;;;;;;;;;;4942084;29;20181;-68
2023/07/11 00:32:15;;;;;;;6.72;1.27;;;;;;;;;;4940373;29;20220;-68
2023/07/11 00:34:40;;;;;;;3.17;1.05;;;;;;;;;;4938659;29;20228;-68
2023/07/11 00:37:07;;;;;;;2.65;0.80;;;;;;;;;;4941433;29;20678;-67
2023/07/11 00:39:33;;;;;;;2.08;1.00;;;;;;;;;;4942203;28;20205;-67
2023/07/11 00:41:59;;;;;;;1.63;0.80;;;;;;;;;;4942559;29;20722;-68
2023/07/11 00:44:24;;;;;;;2.10;1.00;;;;;;;;;;4942007;29;20216;-67
2023/07/11 00:46:49;;;;;;;3.63;0.90;;;;;;;;;;4942859;29;20212;-67
2023/07/11 00:49:16;;;;;;;0.95;0.85;;;;;;;;;;4941033;28;20255;-67
2023/07/11 00:52:01;;;;;;;3.05;1.35;;;;;;;;;;4941892;28;20213;-69
2023/07/11 00:54:29;;;;;;;3.80;1.23;;;;;;;;;;4939980;29;20996;-68
2023/07/11 00:56:55;;;;;;;1.50;0.70;;;;;;;;;;4941038;29;21059;-68
2023/07/11 00:59:22;;;;;;;2.67;0.90;;;;;;;;;;4941867;28;20212;-68
2023/07/11 01:01:50;;;;;;;6.32;1.10;;;;;;;;;;4941296;28;20196;-68
2023/07/11 01:04:19;;;;;;;3.67;0.98;;;;;;;;;;4941384;28;20228;-68
2023/07/11 01:06:45;;;;;;;1.27;1.15;;;;;;;;;;4941218;29;20189;-67
2023/07/11 01:09:10;;;;;;;2.25;0.90;;;;;;;;;;4938519;28;20733;-67
2023/07/11 01:11:50;;;;;;;1.20;0.98;;;;;;;;;;4937703;28;20209;-68
2023/07/11 01:14:15;;;;;;;2.78;1.30;;;;;;;;;;4940817;29;20177;-68
2023/07/11 01:16:44;;;;;;;4.75;1.50;;;;;;;;;;4940781;29;20192;-68
2023/07/11 01:19:09;;;;;;;1.55;0.82;;;;;;;;;;4940522;28;20237;-68
2023/07/11 01:21:34;;;;;;;2.10;1.15;;;;;;;;;;4938924;29;20196;-68
2023/07/11 01:24:00;;;;;;;1.73;1.08;;;;;;;;;;4940160;29;20193;-68
2023/07/11 01:26:25;;;;;;;3.45;0.98;;;;;;;;;;4940108;29;20204;-68
2023/07/11 01:28:50;;;;;;;1.38;1.15;;;;;;;;;;4938337;28;20220;-67
2023/07/11 01:31:15;;;;;;;2.28;1.60;;;;;;;;;;4939709;29;20304;-68
2023/07/11 01:33:41;;;;;;;1.58;0.90;;;;;;;;;;4940743;29;20196;-68
2023/07/11 01:36:06;;;;;;;2.97;0.95;;;;;;;;;;4940846;29;20212;-68
2023/07/11 01:38:31;;;;;;;1.88;0.88;;;;;;;;;;4939524;28;20258;-68
2023/07/11 01:40:56;;;;;;;3.80;1.20;;;;;;;;;;4938399;29;20659;-68
2023/07/11 01:43:22;;;;;;;3.40;1.27;;;;;;;;;;4940183;29;20189;-68
2023/07/11 01:45:47;;;;;;;3.58;1.20;;;;;;;;;;4940880;29;20328;-67
2023/07/11 01:48:12;;;;;;;1.58;1.10;;;;;;;;;;4940854;28;20213;-67
2023/07/11 01:50:37;;;;;;;2.83;1.10;;;;;;;;;;4939167;29;20557;-67
2023/07/11 01:53:03;;;;;;;2.75;1.27;;;;;;;;;;4940131;29;20694;-67
2023/07/11 01:55:28;;;;;;;5.05;1.20;;;;;;;;;;4940482;29;20579;-67
2023/07/11 01:57:53;;;;;;;2.00;1.10;;;;;;;;;;4937182;28;20217;-67
2023/07/11 02:00:19;;;;;;;2.78;1.17;;;;;;;;;;4940294;29;20181;-67
2023/07/11 02:02:44;;;;;;;2.42;1.23;;;;;;;;;;4938347;29;20232;-67
2023/07/11 02:05:09;;;;;;;4.03;1.60;;;;;;;;;;4941869;29;20192;-67
2023/07/11 02:07:35;;;;;;;2.75;1.27;;;;;;;;;;4938256;28;21010;-67
2023/07/11 02:10:00;;;;;;;1.83;1.30;;;;;;;;;;4937633;29;20275;-67
2023/07/11 02:12:25;;;;;;;4.15;1.27;;;;;;;;;;4937022;29;20213;-67
2023/07/11 02:14:50;;;;;;;1.83;1.27;;;;;;;;;;4923071;29;20189;-67
2023/07/11 02:17:16;;;;;;;1.92;1.15;;;;;;;;;;4938389;28;20189;-67
2023/07/11 02:19:42;;;;;;;1.63;1.00;;;;;;;;;;4938340;29;20255;-67
2023/07/11 02:22:08;;;;;;;5.05;1.33;;;;;;;;;;4939637;28;20188;-68
2023/07/11 02:24:33;;;;;;;2.92;1.40;;;;;;;;;;4938543;29;20337;-67
2023/07/11 02:26:58;;;;;;;3.42;1.20;;;;;;;;;;4939623;29;20234;-68
2023/07/11 02:29:24;;;;;;;4.00;1.05;;;;;;;;;;4940996;28;20622;-68
2023/07/11 02:31:49;;;;;;;1.30;1.17;;;;;;;;;;4938542;29;20267;-67
2023/07/11 02:34:14;;;;;;;3.58;1.23;;;;;;;;;;4939945;28;20216;-68
2023/07/11 02:36:39;;;;;;;3.63;1.27;;;;;;;;;;4940445;29;20193;-68
2023/07/11 02:39:04;;;;;;;3.63;1.00;;;;;;;;;;4940641;28;20223;-68
2023/07/11 02:41:30;;;;;;;1.67;1.10;;;;;;;;;;4938876;29;20867;-67
2023/07/11 02:43:55;;;;;;;4.43;1.10;;;;;;;;;;4939096;29;20197;-67
2023/07/11 02:46:21;;;;;;;1.98;1.27;;;;;;;;;;4940114;28;20192;-68
2023/07/11 02:48:46;;;;;;;2.80;1.67;;;;;;;;;;4939018;28;20224;-68
2023/07/11 02:51:11;;;;;;;2.97;1.40;;;;;;;;;;4937500;29;20231;-67
2023/07/11 02:53:36;;;;;;;3.58;1.00;;;;;;;;;;4938864;29;20205;-68
2023/07/11 02:56:02;;;;;;;1.60;1.38;;;;;;;;;;4939534;29;20193;-68
2023/07/11 02:58:27;;;;;;;1.65;1.55;;;;;;;;;;4939961;28;20225;-68
2023/07/11 03:00:57;;;;;;;2.20;1.20;;;;;;;;;;4939544;28;20193;-68
2023/07/11 03:03:23;;;;;;;1.55;1.05;;;;;;;;;;4937379;29;20188;-68
2023/07/11 03:05:50;;;;;;;2.55;1.30;;;;;;;;;;4939441;29;20189;-68
2023/07/11 03:08:15;;;;;;;2.25;1.00;;;;;;;;;;4937160;28;20228;-68
2023/07/11 03:10:41;;;;;;;2.10;1.40;;;;;;;;;;4938932;28;20189;-68
2023/07/11 03:13:06;;;;;;;4.57;1.73;;;;;;;;;;4938973;29;20193;-68
2023/07/11 03:15:35;;;;;;;5.82;1.63;;;;;;;;;;4940732;29;20191;-68
2023/07/11 03:18:01;;;;;;;2.92;1.45;;;;;;;;;;4938519;28;20225;-68
2023/07/11 03:20:26;;;;;;;2.42;1.40;;;;;;;;;;4939109;29;20555;-68
2023/07/11 03:22:51;;;;;;;6.53;2.35;;;;;;;;;;4939985;29;20195;-68
2023/07/11 03:25:17;;;;;;;4.90;1.67;;;;;;;;;;4937322;29;20181;-69
2023/07/11 03:27:42;;;;;;;3.88;1.63;;;;;;;;;;4938832;28;20304;-68
2023/07/11 03:30:07;;;;;;;3.17;1.80;;;;;;;;;;4938955;28;20244;-68
2023/07/11 03:32:33;;;;;;;4.85;2.22;;;;;;;;;;4937719;29;20220;-68
2023/07/11 03:34:58;;;;;;;4.32;1.60;;;;;;;;;;4941667;28;20576;-68
2023/07/11 03:37:23;;;;;;;6.15;1.50;;;;;;;;;;4943078;28;21059;-68
2023/07/11 03:39:49;;;;;;;3.90;2.20;;;;;;;;;;4941779;29;20192;-68
2023/07/11 03:42:14;;;;;;;4.45;2.28;;;;;;;;;;4940124;29;21097;-68
2023/07/11 03:44:41;;;;;;;3.75;2.15;;;;;;;;;;4941388;29;21565;-68
2023/07/11 03:47:06;;;;;;;4.13;2.10;;;;;;;;;;4942654;28;20636;-68
2023/07/11 03:49:31;;;;;;;8.32;1.83;;;;;;;;;;4941993;28;20216;-68
2023/07/11 03:51:56;;;;;;;4.82;2.35;;;;;;;;;;4941963;29;20553;-68
2023/07/11 03:54:23;;;;;;;3.03;1.88;;;;;;;;;;4941955;29;20677;-68
2023/07/11 03:56:49;;;;;;;5.03;2.08;;;;;;;;;;4941947;29;20598;-68
2023/07/11 03:59:14;;;;;;;5.60;3.08;;;;;;;;;;4940656;28;20209;-68
2023/07/11 04:01:39;;;;;;;3.28;2.55;;;;;;;;;;4941706;29;20208;-68
2023/07/11 04:04:05;;;;;;;6.78;2.60;;;;;;;;;;4942125;28;20184;-68
2023/07/11 04:06:30;;;;;;;5.93;2.90;;;;;;;;;;4943553;29;20189;-68
2023/07/11 04:08:55;;;;;;;3.47;2.88;;;;;;;;;;4939681;28;20838;-68
2023/07/11 04:11:20;;;;;;;6.25;3.35;;;;;;;;;;4942610;29;20208;-68
2023/07/11 04:13:46;;;;;;;5.93;3.38;;;;;;;;;;4940888;29;20307;-68
2023/07/11 04:16:11;;;;;;;3.95;3.08;;;;;;;;;;4942037;29;20208;-68
2023/07/11 04:18:36;;;;;;;7.40;3.33;;;;;;;;;;4941487;28;20220;-68
2023/07/11 04:21:01;;;;;;;6.07;3.22;;;;;;;;;;4942522;29;20276;-68
2023/07/11 04:23:26;;;;;;;4.88;3.38;;;;;;;;;;4942002;29;20192;-68
2023/07/11 04:25:52;;;;;;;6.18;4.07;;;;;;;;;;4941557;28;20196;-68
2023/07/11 04:28:17;;;;;;;5.63;3.90;;;;;;;;;;4942129;28;20714;-68
2023/07/11 04:30:42;;;;;;;7.80;3.60;;;;;;;;;;4941348;29;20189;-68
2023/07/11 04:33:07;;;;;;;6.60;4.50;;;;;;;;;;4941726;29;20188;-68
2023/07/11 04:35:33;;;;;;;4.88;3.50;;;;;;;;;;4941887;29;20855;-68
2023/07/11 04:37:58;;;;;;;8.30;4.10;;;;;;;;;;4941391;28;20213;-68
2023/07/11 04:40:23;;;;;;;4.93;3.85;;;;;;;;;;4942810;28;21023;-68
2023/07/11 04:42:48;;;;;;;9.73;4.32;;;;;;;;;;4941183;29;20193;-68
2023/07/11 04:45:14;;;;;;;6.35;4.65;;;;;;;;;;4939654;28;20201;-68
2023/07/11 04:47:39;;;;;;;8.77;4.50;;;;;;;;;;4940939;28;20225;-68
2023/07/11 04:50:04;;;;;;;5.32;4.22;;;;;;;;;;4941259;29;20192;-68
2023/07/11 04:52:30;;;;;;;6.57;4.95;;;;;;;;;;4941047;29;20518;-68
2023/07/11 04:54:55;;;;;;;6.03;4.95;;;;;;;;;;4940213;29;20199;-68
2023/07/11 04:57:21;;;;;;;7.45;4.60;;;;;;;;;;4941268;28;20197;-68
2023/07/11 04:59:46;;;;;;;8.30;5.30;;;;;;;;;;4941137;29;20747;-68
2023/07/11 05:02:11;;;;;;;7.65;4.70;;;;;;;;;;4939802;29;20193;-68
2023/07/11 05:04:38;;;;;;;5.47;4.80;;;;;;;;;;4939874;28;20189;-68
2023/07/11 05:07:04;;;;;;;11.02;5.70;;;;;;;;;;4941525;29;20189;-68
2023/07/11 05:09:29;;;;;;;8.25;6.05;;;;;;;;;;4940896;28;20216;-68
2023/07/11 05:11:54;;;;;;;8.30;5.82;;;;;;;;;;4940819;29;20212;-68
2023/07/11 05:14:20;;;;;;;10.15;5.97;;;;;;;;;;4938880;29;20204;-68
2023/07/11 05:16:45;;;;;;;9.30;6.70;;;;;;;;;;4938830;29;20243;-67
2023/07/11 05:19:10;;;;;;;13.05;7.80;;;;;;;;;;4939018;28;20362;-67
2023/07/11 05:21:36;;;;;;;9.93;6.53;;;;;;;;;;4935740;29;20189;-66
2023/07/11 05:24:01;;;;;;;11.55;7.40;;;;;;;;;;4938133;29;21009;-67
2023/07/11 05:26:27;;;;;;;10.50;7.22;;;;;;;;;;4940217;28;20916;-67
2023/07/11 05:28:52;;;;;;;14.02;7.82;;;;;;;;;;4941559;28;20209;-67
2023/07/11 05:31:18;;;;;;;11.25;7.72;;;;;;;;;;4941386;29;20283;-67
2023/07/11 05:33:44;;;;;;;10.80;7.53;;;;;;;;;;4940859;29;20185;-67
2023/07/11 05:36:23;;;;;;;11.10;7.28;;;;;;;;;;4941369;28;20268;-67
2023/07/11 05:38:48;;;;;;;8.32;6.13;;;;;;;;;;4940964;28;20205;-66
2023/07/11 05:41:13;;;;;;;10.98;6.18;;;;;;;;;;4938944;28;20223;-69
2023/07/11 05:43:39;;;;;;;8.13;6.35;;;;;;;;;;4939715;29;20201;-67
2023/07/11 05:46:04;;;;;;;10.50;7.13;;;;;;;;;;4940454;29;20212;-67
2023/07/11 05:48:29;;;;;;;8.48;6.80;;;;;;;;;;4941445;28;20211;-69
2023/07/11 05:50:58;;;;;;;6.07;5.47;;;;;;;;;;4940244;28;20202;-68
2023/07/11 05:53:23;;;;;;;13.38;6.20;;;;;;;;;;4941449;29;20679;-68
2023/07/11 05:55:48;;;;;;;9.13;5.90;;;;;;;;;;4940325;29;20196;-68
2023/07/11 05:58:13;;;;;;;7.70;5.57;;;;;;;;;;4941519;28;20645;-68
2023/07/11 06:00:38;;;;;;;9.23;5.80;;;;;;;;;;4938489;29;20431;-68
2023/07/11 06:03:04;;;;;;;10.65;6.47;;;;;;;;;;4940689;28;20181;-68
2023/07/11 06:05:29;;;;;;;7.18;5.95;;;;;;;;;;4939816;29;20181;-68
2023/07/11 06:07:54;;;;;;;9.45;5.72;;;;;;;;;;4940474;28;20271;-67
2023/07/11 06:10:19;;;;;;;9.13;5.28;;;;;;;;;;4940053;29;20271;-67
2023/07/11 06:12:45;;;;;;;9.32;5.35;;;;;;;;;;4940118;29;21454;-68
2023/07/11 06:15:10;;;;;;;7.97;5.45;;;;;;;;;;4941186;29;20194;-67
2023/07/11 06:17:35;;;;;;;10.15;5.47;;;;;;;;;;4938550;28;20240;-68
2023/07/11 06:20:00;;;;;;;6.07;4.95;;;;;;;;;;4980118;23;20625;-73
2023/07/11 06:22:26;;;;;;;7.03;4.28;;;;;;;;;;4970677;28;20191;-71
2023/07/11 06:24:51;;;;;;;6.22;4.72;;;;;;;;;;4971697;28;20183;-71
2023/07/11 06:27:16;;;;;;;5.85;3.83;;;;;;;;;;4972097;28;20246;-72
2023/07/11 06:29:41;;;;;;;6.13;4.25;;;;;;;;;;4970231;28;20302;-72
2023/07/11 06:32:07;;;;;;;6.03;3.65;;;;;;;;;;4967414;28;20225;-72
2023/07/11 06:34:32;;;;;;;7.40;3.78;;;;;;;;;;4968675;28;20245;-72
2023/07/11 06:36:57;;;;;;;6.72;3.15;;;;;;;;;;4970067;28;20564;-73
2023/07/11 06:39:23;;;;;;;6.18;3.85;;;;;;;;;;4970597;28;20603;-72
2023/07/11 06:41:48;;;;;;;5.93;3.10;;;;;;;;;;4965468;28;20851;-72
2023/07/11 06:44:13;;;;;;;6.28;3.50;;;;;;;;;;4969566;28;20192;-73
2023/07/11 06:46:38;;;;;;;7.60;3.58;;;;;;;;;;4971342;28;20578;-73
2023/07/11 06:49:03;;;;;;;6.95;3.75;;;;;;;;;;4969770;28;20720;-72
2023/07/11 06:51:29;;;;;;;8.48;3.72;;;;;;;;;;4970250;28;20200;-72
2023/07/11 06:53:55;;;;;;;5.65;3.70;;;;;;;;;;4970856;28;20688;-72
2023/07/11 06:56:20;;;;;;;4.88;3.38;;;;;;;;;;4970324;28;20188;-72
2023/07/11 06:58:47;;;;;;;8.13;3.30;;;;;;;;;;4971378;28;20298;-72
2023/07/11 07:01:12;;;;;;;5.57;2.85;;;;;;;;;;4971734;28;20194;-73
2023/07/11 07:03:37;;;;;;;5.03;3.20;;;;;;;;;;4968080;28;20179;-73
2023/07/11 07:06:05;;;;;;;6.65;3.40;;;;;;;;;;4970691;28;20306;-72
2023/07/11 07:08:30;;;;;;;6.10;2.72;;;;;;;;;;4969645;28;20242;-72
2023/07/11 07:10:55;;;;;;;4.97;2.58;;;;;;;;;;4972697;28;20268;-73
2023/07/11 07:13:21;;;;;;;4.35;2.40;;;;;;;;;;4973786;28;20187;-72
2023/07/11 07:15:48;;;;;;;4.38;2.78;;;;;;;;;;4974279;28;20230;-72
2023/07/11 07:18:13;;;;;;;6.55;2.60;;;;;;;;;;4973414;28;20207;-72
2023/07/11 07:20:38;;;;;;;4.55;2.45;;;;;;;;;;4973050;28;20206;-72
2023/07/11 07:23:05;;;;;;;4.88;1.92;;;;;;;;;;4974496;28;20195;-72
2023/07/11 07:25:30;;;;;;;6.03;2.63;;;;;;;;;;4974404;28;20659;-72
2023/07/11 07:27:57;;;;;;;4.90;1.75;;;;;;;;;;4974222;28;20196;-72
2023/07/11 07:30:23;;;;;;;3.80;2.15;;;;;;;;;;4974546;28;20188;-73
2023/07/11 07:32:48;;;;;;;5.90;2.05;;;;;;;;;;4973665;28;20786;-72
2023/07/11 07:35:13;;;;;;;5.93;2.10;;;;;;;;;;4973837;28;20536;-73
2023/07/11 07:37:39;;;;;;;6.38;1.88;;;;;;;;;;4973936;28;20188;-73
2023/07/11 07:40:04;;;;;;;5.15;2.67;;;;;;;;;;4974583;28;20208;-73
2023/07/11 07:42:30;;;;;;;3.85;1.63;;;;;;;;;;4973593;28;20227;-73
2023/07/11 07:44:55;;;;;;;4.00;1.60;;;;;;;;;;4975580;28;20903;-73
2023/07/11 07:47:20;;;;;;;3.70;1.95;;;;;;;;;;4974214;28;20846;-73
2023/07/11 07:49:46;;;;;;;7.28;2.30;;;;;;;;;;4973446;28;20294;-72
2023/07/11 07:52:11;;;;;;;4.10;1.73;;;;;;;;;;4972305;28;20286;-71
2023/07/11 07:54:36;;;;;;;7.53;2.03;;;;;;;;;;4974104;28;20424;-72
2023/07/11 07:57:01;;;;;;;3.20;2.05;;;;;;;;;;4974200;28;20434;-72
2023/07/11 07:59:27;;;;;;;4.60;1.47;;;;;;;;;;4973955;28;20230;-72
2023/07/11 08:01:52;;;;;;;4.00;1.80;;;;;;;;;;4974252;28;20807;-72
2023/07/11 08:04:17;;;;;;;9.45;2.15;;;;;;;;;;4973641;28;20196;-72
2023/07/11 08:06:43;;;;;;;4.28;1.83;;;;;;;;;;4974063;28;20211;-71
2023/07/11 08:09:08;;;;;;;8.23;2.28;;;;;;;;;;4971257;28;20207;-72
2023/07/11 08:11:33;;;;;;;6.63;1.70;;;;;;;;;;4972468;28;20214;-72
2023/07/11 08:13:58;;;;;;;3.17;1.55;;;;;;;;;;4972079;28;20658;-72
2023/07/11 08:16:24;;;;;;;6.33;2.00;;;;;;;;;;4973943;28;20584;-73
2023/07/11 08:18:49;;;;;;;2.08;1.70;;;;;;;;;;4973641;28;21264;-73
2023/07/11 08:21:14;;;;;;;5.47;1.50;;;;;;;;;;4973559;28;20192;-72
2023/07/11 08:23:40;;;;;;;4.63;1.88;;;;;;;;;;4972982;28;20413;-72
2023/07/11 08:26:05;;;;;;;5.93;2.15;;;;;;;;;;4973572;28;20238;-72
2023/07/11 08:28:31;;;;;;;3.87;1.80;;;;;;;;;;4973053;28;20950;-72
2023/07/11 08:30:57;;;;;;;4.93;1.40;;;;;;;;;;4968884;28;20436;-73
2023/07/11 08:33:22;;;;;;;6.22;2.10;;;;;;;;;;4972897;28;20184;-73
2023/07/11 08:35:47;;;;;;;4.60;2.10;;;;;;;;;;4973511;28;21080;-73
2023/07/11 08:38:12;;;;;;;4.43;1.70;;;;;;;;;;4973247;28;20521;-73
2023/07/11 08:40:40;;;;;;;4.72;1.85;;;;;;;;;;4970183;28;20512;-73
2023/07/11 08:43:05;;;;;;;5.03;2.20;;;;;;;;;;4971883;28;20216;-70
2023/07/11 08:45:34;;;;;;;5.72;2.03;;;;;;;;;;4973715;28;20326;-71
2023/07/11 08:48:25;;;;;;;4.85;1.80;;;;;;;;;;4971910;28;20253;-73
2023/07/11 08:51:02;;;;;;;5.53;1.95;;;;;;;;;;4969837;28;21102;-72
2023/07/11 08:53:30;;;;;;;5.43;2.22;;;;;;;;;;4972832;28;21012;-72
2023/07/11 08:55:58;;;;;;;8.15;2.45;;;;;;;;;;4972403;28;20909;-72
2023/07/11 08:58:32;;;;;;;4.43;2.00;;;;;;;;;;4971555;28;20236;-73
2023/07/11 09:01:00;;;;;;;5.85;2.47;;;;;;;;;;4971784;28;20725;-73
2023/07/11 09:03:38;;;;;;;5.55;2.00;;;;;;;;;;4970834;28;20184;-72
2023/07/11 09:06:04;;;;;;;2.72;1.60;;;;;;;;;;4971090;28;20183;-73
2023/07/11 09:08:30;;;;;;;6.43;1.58;;;;;;;;;;4970098;28;20567;-73
2023/07/11 09:11:06;;;;;;;7.25;2.10;;;;;;;;;;4970665;28;20284;-71
2023/07/11 09:13:31;;;;;;;2.38;1.60;;;;;;;;;;4973269;28;20207;-71
2023/07/11 09:16:01;;;;;;;3.33;1.73;;;;;;;;;;4973117;28;20270;-72
2023/07/11 09:18:29;;;;;;;3.88;1.80;;;;;;;;;;4972219;28;20223;-72
2023/07/11 09:21:01;;;;;;;5.13;1.83;;;;;;;;;;4971648;28;20552;-73
2023/07/11 09:23:38;;;;;;;7.68;2.63;;;;;;;;;;4970927;28;20981;-73
2023/07/11 09:26:04;;;;;;;4.88;1.65;;;;;;;;;;4972056;28;20194;-73
2023/07/11 09:28:30;;;;;;;8.48;1.70;;;;;;;;;;4970909;28;20236;-72
2023/07/11 09:30:55;;;;;;;9.65;2.17;;;;;;;;;;4971841;28;21026;-73
2023/07/11 09:33:30;;;;;;;3.97;2.00;;;;;;;;;;4970988;28;20188;-72
2023/07/11 09:35:55;;;;;;;4.72;2.03;;;;;;;;;;4971002;28;20418;-72
2023/07/11 09:38:30;;;;;;;2.50;1.50;;;;;;;;;;4972377;28;20580;-73
2023/07/11 09:40:58;;;;;;;3.22;1.77;;;;;;;;;;4971168;28;20577;-73
2023/07/11 09:43:23;;;;;;;5.78;2.40;;;;;;;;;;4972868;28;20192;-72
2023/07/11 09:45:49;;;;;;;8.10;2.25;;;;;;;;;;4973994;28;20227;-73
2023/07/11 09:48:16;;;;;;;3.10;1.60;;;;;;;;;;4972272;28;20200;-73
2023/07/11 09:50:45;;;;;;;5.57;2.08;;;;;;;;;;4972234;28;20184;-72
2023/07/11 09:53:13;;;;;;;3.60;1.83;;;;;;;;;;4971894;28;20232;-72
2023/07/11 09:55:38;;;;;;;4.47;2.03;;;;;;;;;;4971055;28;20819;-72
2023/07/11 09:58:03;;;;;;;3.28;1.77;;;;;;;;;;4970313;28;20202;-73
2023/07/11 10:00:29;;;;;;;4.57;1.58;;;;;;;;;;4971413;28;21622;-73
2023/07/11 10:02:56;;;;;;;3.50;1.70;;;;;;;;;;4971212;28;20199;-73
2023/07/11 10:05:23;;;;;;;3.95;1.48;;;;;;;;;;4971084;28;20191;-73
2023/07/11 10:08:01;;;;;;;6.10;1.80;;;;;;;;;;4971848;28;20684;-73
2023/07/11 10:10:26;;;;;;;3.35;1.70;;;;;;;;;;4970443;28;20195;-73
2023/07/11 10:12:52;;;;;;;3.63;1.73;;;;;;;;;;4971089;28;20215;-72
2023/07/11 10:15:18;;;;;;;4.55;1.80;;;;;;;;;;4969475;28;20785;-71
2023/07/11 10:17:44;;;;;;;5.40;2.05;;;;;;;;;;4971389;28;20616;-72
2023/07/11 10:20:16;;;;;;;3.13;1.52;;;;;;;;;;4972095;28;20225;-71
2023/07/11 10:22:42;;;;;;;9.05;1.95;;;;;;;;;;4971007;28;20190;-75
2023/07/11 10:25:10;;;;;;;3.92;2.00;;;;;;;;;;4970971;28;20183;-70
2023/07/11 10:27:36;;;;;;;3.22;1.63;;;;;;;;;;4970905;28;20220;-72
2023/07/11 10:30:03;;;;;;;3.45;1.67;;;;;;;;;;4970614;28;20212;-72
2023/07/11 10:32:33;;;;;;;2.78;1.90;;;;;;;;;;4968846;28;20295;-72
2023/07/11 10:35:00;;;;;;;7.72;2.10;;;;;;;;;;4971794;28;20180;-73
2023/07/11 10:37:41;;;;;;;5.25;2.20;;;;;;;;;;4971048;28;20188;-73
2023/07/11 10:40:09;;;;;;;6.18;1.83;;;;;;;;;;4971208;28;20837;-73
2023/07/11 10:42:40;;;;;;;3.53;1.58;;;;;;;;;;4969848;28;20581;-73
2023/07/11 10:45:17;;;;;;;5.32;1.88;;;;;;;;;;4974136;28;20192;-72
2023/07/11 10:48:08;;;;;;;5.47;2.03;;;;;;;;;;4975436;28;20191;-73
2023/07/11 10:50:45;;;;;;;5.38;1.95;;;;;;;;;;4959419;28;20209;-73
2023/07/11 10:53:16;;;;;;;9.18;2.50;;;;;;;;;;4975062;28;20303;-73
2023/07/11 10:55:44;;;;;;;2.97;2.08;;;;;;;;;;4975372;28;20184;-71
2023/07/11 10:58:09;;;;;;;4.50;1.92;;;;;;;;;;4975593;28;20277;-73
2023/07/11 11:00:46;;;;;;;7.90;2.35;;;;;;;;;;4974285;28;20195;-72
2023/07/11 11:03:12;;;;;;;5.65;2.08;;;;;;;;;;4974514;28;20187;-72
2023/07/11 11:05:38;;;;;;;4.68;2.00;;;;;;;;;;4975402;28;20339;-72
2023/07/11 11:08:10;;;;;;;3.13;1.90;;;;;;;;;;4974730;28;20177;-73
2023/07/11 11:10:38;;;;;;;5.50;2.03;;;;;;;;;;4971500;28;20233;-74
2023/07/11 11:13:15;;;;;;;5.65;2.30;;;;;;;;;;4972995;28;20207;-73
2023/07/11 11:15:43;;;;;;;3.55;2.03;;;;;;;;;;4974902;28;20258;-73
2023/07/11 11:18:08;;;;;;;6.43;2.05;;;;;;;;;;4974190;28;20184;-73
2023/07/11 11:20:36;;;;;;;5.93;2.13;;;;;;;;;;4974225;28;20191;-73
2023/07/11 11:23:20;;;;;;;5.80;2.38;;;;;;;;;;4969803;28;20404;-73
2023/07/11 11:25:55;;;;;;;5.13;2.38;;;;;;;;;;4974125;28;20184;-73
2023/07/11 11:28:29;;;;;;;7.40;2.33;;;;;;;;;;4972344;28;20292;-72
2023/07/11 11:31:13;;;;;;;4.70;2.50;;;;;;;;;;4974303;28;20584;-73
2023/07/11 11:33:53;;;;;;;6.20;2.35;;;;;;;;;;4974648;28;20864;-72
2023/07/11 11:36:28;;;;;;;4.40;2.30;;;;;;;;;;4974278;28;20202;-72
2023/07/11 11:39:02;;;;;;;5.43;2.47;;;;;;;;;;4973697;28;20303;-71
2023/07/11 11:41:32;;;;;;;5.35;2.25;;;;;;;;;;4973818;28;20244;-72
2023/07/11 11:43:58;;;;;;;4.65;3.00;;;;;;;;;;4972701;28;20188;-72
2023/07/11 11:46:23;;;;;;;4.03;2.25;;;;;;;;;;4974596;28;20188;-72
2023/07/11 11:48:50;;;;;;;9.85;2.58;;;;;;;;;;4974334;28;20298;-73
2023/07/11 11:51:17;;;;;;;4.93;2.53;;;;;;;;;;4973518;28;20208;-72
2023/07/11 11:53:46;;;;;;;6.18;3.00;;;;;;;;;;4972972;28;20224;-72
2023/07/11 11:56:13;;;;;;;7.03;2.70;;;;;;;;;;4973505;28;20183;-72
2023/07/11 11:58:50;;;;;;;4.50;2.65;;;;;;;;;;4973498;28;20235;-72
2023/07/11 12:01:34;;;;;;;8.75;2.67;;;;;;;;;;4972495;28;20835;-73
2023/07/11 12:03:59;;;;;;;5.57;2.92;;;;;;;;;;4973154;28;20250;-72
2023/07/11 12:06:34;;;;;;;7.72;2.38;;;;;;;;;;4973790;28;20196;-72
2023/07/11 12:09:17;;;;;;;5.25;2.58;;;;;;;;;;4970902;28;20207;-73
2023/07/11 12:12:06;;;;;;;4.85;2.53;;;;;;;;;;4973267;28;20211;-73
2023/07/11 12:14:42;;;;;;;7.10;2.70;;;;;;;;;;4972796;28;20449;-72
2023/07/11 12:17:27;;;;;;;3.20;2.22;;;;;;;;;;4971962;28;20188;-72
2023/07/11 12:19:57;;;;;;;6.70;2.63;;;;;;;;;;4983234;23;20331;-68
2023/07/11 12:22:22;;;;;;;4.00;2.30;;;;;;;;;;4971774;28;20314;-68
2023/07/11 12:24:58;;;;;;;4.18;2.28;;;;;;;;;;4972599;28;20192;-69
2023/07/11 12:27:23;;;;;;;5.72;2.72;;;;;;;;;;4970945;28;20844;-67
2023/07/11 12:29:52;;;;;;;5.67;2.83;;;;;;;;;;4971915;28;20212;-67
2023/07/11 12:32:32;;;;;;;10.15;3.10;;;;;;;;;;4971148;28;20461;-67
2023/07/11 12:34:57;;;;;;;4.72;2.25;;;;;;;;;;4970394;28;20187;-67
2023/07/11 12:37:26;;;;;;;10.07;2.27;;;;;;;;;;4970416;28;20611;-67
2023/07/11 12:39:58;;;;;;;4.32;2.40;;;;;;;;;;4974449;28;20468;-67
2023/07/11 12:42:34;;;;;;;4.80;2.40;;;;;;;;;;4971418;28;20196;-67
2023/07/11 12:45:00;;;;;;;5.18;2.58;;;;;;;;;;4968824;28;20244;-67
2023/07/11 12:47:25;;;;;;;3.40;2.60;;;;;;;;;;4971565;28;20638;-67
2023/07/11 12:49:51;;;;;;;5.57;2.08;;;;;;;;;;4971602;28;20649;-67
2023/07/11 12:52:19;;;;;;;5.95;2.45;;;;;;;;;;4970288;28;20632;-67
2023/07/11 12:54:45;;;;;;;8.10;3.30;;;;;;;;;;4972009;28;20195;-67
2023/07/11 12:57:14;;;;;;;4.60;2.47;;;;;;;;;;4969663;28;20191;-67
2023/07/11 12:59:40;;;;;;;4.72;2.42;;;;;;;;;;4970041;28;20291;-67
2023/07/11 13:02:06;;;;;;;5.07;2.88;;;;;;;;;;4971500;28;20193;-67
2023/07/11 13:04:31;;;;;;;4.93;2.40;;;;;;;;;;4970414;28;20602;-67
2023/07/11 13:06:57;;;;;;;4.43;2.43;;;;;;;;;;4970152;28;20199;-67
2023/07/11 13:09:23;;;;;;;4.03;2.10;;;;;;;;;;4970716;28;20448;-68
2023/07/11 13:11:49;;;;;;;4.93;2.42;;;;;;;;;;4970977;28;20210;-68
2023/07/11 13:14:14;;;;;;;3.78;1.92;;;;;;;;;;4970510;28;20185;-67
2023/07/11 13:16:40;;;;;;;3.33;2.23;;;;;;;;;;4971012;28;20253;-67
2023/07/11 13:19:09;;;;;;;5.30;2.20;;;;;;;;;;4969021;28;20453;-67
2023/07/11 13:21:34;;;;;;;4.20;1.73;;;;;;;;;;4970953;28;20735;-67
2023/07/11 13:24:01;;;;;;;2.10;1.80;;;;;;;;;;4970442;28;20191;-67
2023/07/11 13:26:29;;;;;;;3.20;1.90;;;;;;;;;;4970389;28;20186;-67
2023/07/11 13:29:14;;;;;;;3.35;1.90;;;;;;;;;;4969978;28;20208;-68
2023/07/11 13:31:40;;;;;;;3.92;2.50;;;;;;;;;;4969790;28;20655;-68
2023/07/11 13:34:08;;;;;;;6.82;2.13;;;;;;;;;;4969333;28;20187;-67
2023/07/11 13:36:33;;;;;;;2.92;2.10;;;;;;;;;;4970073;28;20183;-67
2023/07/11 13:39:00;;;;;;;5.37;2.17;;;;;;;;;;4970302;28;20965;-67
2023/07/11 13:41:30;;;;;;;4.63;2.13;;;;;;;;;;4969602;28;21169;-66
2023/07/11 13:43:57;;;;;;;4.38;2.45;;;;;;;;;;4969601;28;20689;-68
2023/07/11 13:46:25;;;;;;;5.95;2.40;;;;;;;;;;4966032;28;20553;-67
2023/07/11 13:48:50;;;;;;;6.50;2.20;;;;;;;;;;4970428;28;20578;-68
2023/07/11 13:51:20;;;;;;;4.80;2.20;;;;;;;;;;4969650;28;20517;-68
2023/07/11 13:53:48;;;;;;;3.78;1.95;;;;;;;;;;4969916;28;20277;-68
2023/07/11 13:56:13;;;;;;;7.00;2.28;;;;;;;;;;4970009;28;20862;-68
2023/07/11 13:58:38;;;;;;;6.18;2.05;;;;;;;;;;4971031;28;20282;-68
2023/07/11 14:01:08;;;;;;;4.57;2.10;;;;;;;;;;4968997;28;20171;-68
2023/07/11 14:03:33;;;;;;;3.40;1.88;;;;;;;;;;4970435;28;20477;-68
2023/07/11 14:06:00;;;;;;;4.22;1.92;;;;;;;;;;4971058;28;20175;-68
2023/07/11 14:08:26;;;;;;;7.10;2.63;;;;;;;;;;4969269;28;20207;-69
2023/07/11 14:10:51;;;;;;;4.70;2.05;;;;;;;;;;4966890;28;20198;-67
2023/07/11 14:13:19;;;;;;;3.67;2.30;;;;;;;;;;4969432;28;20215;-67
2023/07/11 14:15:44;;;;;;;3.10;1.75;;;;;;;;;;4969446;28;20548;-67
2023/07/11 14:18:10;;;;;;;2.53;2.10;;;;;;;;;;4970506;28;20179;-68
2023/07/11 14:20:37;;;;;;;5.30;1.70;;;;;;;;;;4969510;28;20613;-68
2023/07/11 14:23:02;;;;;;;2.45;1.73;;;;;;;;;;4969419;28;20191;-68
2023/07/11 14:25:28;;;;;;;5.30;2.10;;;;;;;;;;4970281;28;20552;-68
2023/07/11 14:27:55;;;;;;;3.15;1.88;;;;;;;;;;4968040;28;20477;-68
2023/07/11 14:30:20;;;;;;;6.72;1.95;;;;;;;;;;4970051;28;20261;-68
2023/07/11 14:32:46;;;;;;;4.00;1.88;;;;;;;;;;4967501;28;20865;-68
2023/07/11 14:35:13;;;;;;;3.78;1.70;;;;;;;;;;4969473;28;20234;-68
2023/07/11 14:37:38;;;;;;;4.45;2.10;;;;;;;;;;4969270;28;20183;-68
2023/07/11 14:40:04;;;;;;;4.90;1.73;;;;;;;;;;4966375;28;20199;-68
2023/07/11 14:42:30;;;;;;;5.05;1.67;;;;;;;;;;4967707;28;20705;-68